Time;durP1;ratioP1;P1;durP2;ratioP2;P2;SDS_P1;SDS_P2;PMS_P1;PMS_P2;Temp;Humidity;BMP_temperature;BMP_pressure;BME280_temperature;BME280_humidity;BME280_pressure;Samples;Min_cycle;Max_cycle;Signal;HPM_P1;HPM_P2
2023/09/28 00:00:59;;;;;;;8.27;4.18;;;;;;;17.29;100.00;101320.50;4953454;29;20027;-82
2023/09/28 00:03:26;;;;;;;10.90;4.13;;;;;;;17.12;100.00;101303.66;4935891;28;20036;-82
2023/09/28 00:05:51;;;;;;;7.85;3.97;;;;;;;17.16;100.00;101320.69;4953447;29;20038;-78
2023/09/28 00:08:17;;;;;;;6.35;4.20;;;;;;;17.15;100.00;101322.47;4953643;29;20035;-75
2023/09/28 00:10:48;;;;;;;6.22;3.80;;;;;;;17.04;100.00;101316.50;4953344;29;20031;-79
2023/09/28 00:13:13;;;;;;;10.50;4.00;;;;;;;17.10;100.00;101329.03;4953244;29;20381;-75
2023/09/28 00:15:39;;;;;;;7.20;4.10;;;;;;;17.07;100.00;101335.31;4953075;29;20028;-76
2023/09/28 00:18:04;;;;;;;6.00;3.53;;;;;;;17.03;100.00;101338.31;4953196;29;20110;-76
2023/09/28 00:20:30;;;;;;;7.90;3.80;;;;;;;16.81;100.00;101308.78;4953236;29;20460;-77
2023/09/28 00:22:56;;;;;;;7.57;3.85;;;;;;;16.90;100.00;101336.69;4953289;29;20024;-75
2023/09/28 00:25:25;;;;;;;6.18;3.83;;;;;;;16.88;100.00;101343.81;4953059;28;20499;-74
2023/09/28 00:27:55;;;;;;;7.13;3.70;;;;;;;16.79;100.00;101344.56;4952964;29;20039;-74
2023/09/28 00:30:22;;;;;;;9.55;3.83;;;;;;;16.77;100.00;101338.66;4952855;28;20468;-75
2023/09/28 00:32:52;;;;;;;9.73;4.30;;;;;;;16.77;100.00;101332.59;4952956;29;20050;-75
2023/09/28 00:35:19;;;;;;;7.53;3.90;;;;;;;16.68;100.00;101326.34;4952862;29;20126;-76
2023/09/28 00:37:45;;;;;;;6.55;3.80;;;;;;;16.56;100.00;101314.28;4953099;29;20019;-75
2023/09/28 00:42:56;;;;;;;8.38;3.92;;;;;;;16.70;100.00;101357.53;4953147;29;20042;-79
2023/09/28 00:45:22;;;;;;;6.15;3.88;;;;;;;16.63;100.00;101357.19;4952704;28;20110;-75
2023/09/28 00:47:54;;;;;;;9.00;4.13;;;;;;;16.57;100.00;101350.66;4952694;28;20027;-74
2023/09/28 00:50:21;;;;;;;7.57;4.30;;;;;;;16.46;100.00;101334.22;4952982;29;20436;-74
2023/09/28 00:52:49;;;;;;;7.13;3.80;;;;;;;16.50;100.00;101343.44;4920616;28;20047;-76
2023/09/28 00:55:18;;;;;;;6.93;4.18;;;;;;;16.53;100.00;101353.66;4952618;29;20042;-76
2023/09/28 00:57:44;;;;;;;7.57;4.10;;;;;;;16.47;100.00;101354.94;4952635;29;20032;-75
2023/09/28 01:00:21;;;;;;;7.35;4.38;;;;;;;16.46;100.00;101347.25;4952776;28;20023;-77
2023/09/28 01:02:51;;;;;;;7.57;3.90;;;;;;;16.41;100.00;101334.56;4952629;29;20062;-76
2023/09/28 01:05:27;;;;;;;6.78;3.60;;;;;;;16.37;100.00;101337.56;4952570;29;20472;-75
2023/09/28 01:07:55;;;;;;;8.98;4.10;;;;;;;16.40;100.00;101347.72;4935446;29;20035;-80
2023/09/28 01:10:23;;;;;;;6.43;4.00;;;;;;;16.38;100.00;101357.44;4952325;29;20027;-76
2023/09/28 01:12:49;;;;;;;7.95;4.00;;;;;;;16.13;100.00;101325.53;4952451;29;20034;-76
2023/09/28 01:15:14;;;;;;;5.75;4.00;;;;;;;16.23;100.00;101343.88;4951706;29;20476;-76
2023/09/28 01:17:40;;;;;;;5.95;4.03;;;;;;;16.24;100.00;101350.72;4952392;29;20035;-76
2023/09/28 01:20:19;;;;;;;6.93;4.10;;;;;;;16.19;100.00;101355.47;4952391;29;20500;-73
2023/09/28 01:22:50;;;;;;;7.15;4.00;;;;;;;16.06;100.00;101345.16;4952208;28;20404;-74
2023/09/28 01:25:18;;;;;;;6.15;4.35;;;;;;;16.04;100.00;101345.28;4952010;29;20088;-77
2023/09/28 01:27:47;;;;;;;6.60;4.07;;;;;;;15.99;100.00;101338.78;4935188;28;20080;-78
2023/09/28 01:30:16;;;;;;;9.00;4.65;;;;;;;16.00;100.00;101356.06;4952368;28;20480;-75
2023/09/28 01:32:42;;;;;;;7.53;4.00;;;;;;;15.87;100.00;101342.34;4952120;29;20555;-74
2023/09/28 01:35:08;;;;;;;7.13;4.15;;;;;;;15.83;100.00;101338.28;4934724;29;20046;-76
2023/09/28 01:37:44;;;;;;;7.00;3.80;;;;;;;15.88;100.00;101352.63;4951844;29;20419;-74
2023/09/28 01:40:13;;;;;;;6.85;4.18;;;;;;;15.83;100.00;101353.91;4934981;29;20035;-75
2023/09/28 01:42:38;;;;;;;6.70;4.70;;;;;;;15.59;100.00;101326.19;4952223;29;20027;-74
2023/09/28 01:45:04;;;;;;;7.28;4.40;;;;;;;15.76;100.00;101361.38;4952032;29;20028;-78
2023/09/28 01:47:29;;;;;;;8.27;4.45;;;;;;;15.73;100.00;101372.00;4954464;29;20031;-75
2023/09/28 01:49:54;;;;;;;7.47;4.55;;;;;;;15.69;100.00;101370.59;4960232;29;20545;-75
2023/09/28 01:52:20;;;;;;;8.18;4.45;;;;;;;15.57;100.00;101361.91;4937388;29;20043;-77
2023/09/28 01:54:45;;;;;;;6.95;4.20;;;;;;;15.61;100.00;101367.75;4952707;29;20051;-76
2023/09/28 01:57:10;;;;;;;6.43;4.47;;;;;;;15.58;100.00;101362.75;4952480;29;20043;-74
2023/09/28 01:59:36;;;;;;;7.00;4.25;;;;;;;15.55;100.00;101366.41;4952417;28;20380;-79
2023/09/28 02:02:02;;;;;;;8.20;4.80;;;;;;;15.40;100.00;101351.94;4952006;29;20092;-78
2023/09/28 02:04:27;;;;;;;6.95;4.30;;;;;;;15.41;100.00;101364.00;4951795;29;20101;-75
2023/09/28 02:06:53;;;;;;;7.30;4.35;;;;;;;15.45;100.00;101376.69;4951791;28;20173;-79
2023/09/28 02:09:18;;;;;;;7.93;4.53;;;;;;;15.27;100.00;101362.44;4952051;29;20043;-77
2023/09/28 02:11:44;;;;;;;8.68;4.80;;;;;;;15.36;100.00;101384.34;4951817;29;20598;-76
2023/09/28 02:14:11;;;;;;;6.78;4.70;;;;;;;15.38;100.00;101392.88;4951893;28;20039;-79
2023/09/28 02:16:36;;;;;;;9.52;5.32;;;;;;;15.12;100.00;101356.59;4951859;29;20384;-79
2023/09/28 02:19:03;;;;;;;9.23;5.00;;;;;;;15.37;100.00;101396.41;4951568;29;20032;-79
2023/09/28 02:21:29;;;;;;;8.95;4.70;;;;;;;15.37;100.00;101399.03;4934370;29;20020;-81
2023/09/28 02:23:55;;;;;;;7.60;5.00;;;;;;;15.34;100.00;101394.03;4951190;28;20031;-80
2023/09/28 02:26:20;;;;;;;9.13;5.20;;;;;;;15.32;100.00;101395.91;4951537;28;20103;-77
2023/09/28 02:28:45;;;;;;;10.55;5.15;;;;;;;15.33;100.00;101397.56;4954082;29;20110;-77
2023/09/28 02:31:11;;;;;;;7.95;5.40;;;;;;;15.29;100.00;101396.97;4954916;29;20027;-74
2023/09/28 02:33:36;;;;;;;8.45;5.15;;;;;;;15.32;100.00;101385.50;4952239;29;20130;-74
2023/09/28 02:36:01;;;;;;;7.63;4.82;;;;;;;15.29;100.00;101383.13;4954869;29;20039;-74
2023/09/28 02:38:28;;;;;;;8.88;4.70;;;;;;;15.25;100.00;101390.34;4954711;29;20439;-80
2023/09/28 02:40:54;;;;;;;7.00;5.10;;;;;;;15.14;100.00;101380.72;4954787;29;20050;-74
2023/09/28 02:43:19;;;;;;;9.23;5.70;;;;;;;15.26;100.00;101401.59;4954737;29;20499;-74
2023/09/28 02:45:45;;;;;;;7.85;5.35;;;;;;;15.19;100.00;101401.19;4954546;29;20092;-77
2023/09/28 02:48:11;;;;;;;7.03;4.90;;;;;;;15.21;100.00;101409.72;4954502;29;20027;-77
2023/09/28 02:50:39;;;;;;;8.88;5.45;;;;;;;15.14;100.00;101400.69;4954500;29;20487;-76
2023/09/28 02:53:05;;;;;;;8.98;5.53;;;;;;;14.95;100.00;101369.19;4954696;29;20027;-79
2023/09/28 02:55:32;;;;;;;9.02;5.35;;;;;;;15.07;100.00;101395.13;4954573;29;20023;-77
2023/09/28 02:57:57;;;;;;;7.40;5.30;;;;;;;15.06;100.00;101411.66;4954563;29;20033;-77
2023/09/28 03:02:50;;;;;;;6.75;5.03;;;;;;;14.89;100.00;101379.06;4954411;29;20031;-79
2023/09/28 03:05:19;;;;;;;7.75;5.55;;;;;;;15.00;100.00;101399.09;4954336;29;20118;-76
2023/09/28 03:07:45;;;;;;;7.95;5.72;;;;;;;14.85;100.00;101384.63;4954340;29;20389;-75
2023/09/28 03:10:11;;;;;;;7.57;5.72;;;;;;;14.97;100.00;101406.31;4954175;29;20023;-78
2023/09/28 03:12:37;;;;;;;8.93;6.20;;;;;;;15.01;100.00;101424.16;4954237;29;20485;-81
2023/09/28 03:15:10;;;;;;;9.25;5.55;;;;;;;14.91;100.00;101405.78;4954261;29;20077;-79
2023/09/28 03:17:36;;;;;;;13.73;6.75;;;;;;;14.88;100.00;101408.63;4954267;28;20027;-76
2023/09/28 03:20:05;;;;;;;10.20;5.35;;;;;;;14.93;100.00;101421.28;4954162;29;20445;-77
2023/09/28 03:22:30;;;;;;;9.90;5.95;;;;;;;14.85;100.00;101414.06;4954186;29;20027;-82
2023/09/28 03:24:58;;;;;;;10.15;6.28;;;;;;;14.95;100.00;101418.59;4954136;29;20035;-80
2023/09/28 03:27:23;;;;;;;10.55;5.90;;;;;;;14.69;100.00;101394.44;4954244;29;20062;-75
2023/09/28 03:29:49;;;;;;;10.63;6.13;;;;;;;14.90;100.00;101432.75;4953863;29;20433;-79
2023/09/28 03:32:15;;;;;;;9.65;5.90;;;;;;;14.85;100.00;101418.44;4953813;29;20047;-78
2023/09/28 03:34:40;;;;;;;8.57;5.68;;;;;;;14.89;100.00;101430.25;4954031;29;20076;-76
2023/09/28 03:37:05;;;;;;;8.73;5.90;;;;;;;14.90;100.00;101434.50;4954095;29;20098;-79
2023/09/28 03:39:31;;;;;;;12.10;6.78;;;;;;;14.91;100.00;101441.38;4953410;29;20074;-78
2023/09/28 03:41:56;;;;;;;7.38;5.68;;;;;;;14.90;100.00;101445.75;4954527;28;20042;-75
2023/09/28 03:44:21;;;;;;;12.40;6.43;;;;;;;14.90;100.00;101450.94;4954011;29;20031;-75
2023/09/28 03:46:47;;;;;;;9.88;6.43;;;;;;;14.90;100.00;101447.50;4937936;28;20054;-75
2023/09/28 03:49:12;;;;;;;9.93;6.20;;;;;;;14.88;100.00;101459.81;4953884;28;20059;-75
2023/09/28 03:51:37;;;;;;;10.88;6.63;;;;;;;14.85;100.00;101462.63;4953703;28;20078;-77
2023/09/28 03:54:03;;;;;;;10.55;6.15;;;;;;;14.85;100.00;101468.66;4953729;28;20023;-74
2023/09/28 03:56:28;;;;;;;10.55;6.60;;;;;;;14.85;100.00;101466.06;4953595;29;20027;-78
2023/09/28 03:58:54;;;;;;;9.43;6.57;;;;;;;14.75;100.00;101454.66;4953627;29;20028;-76
2023/09/28 04:01:19;;;;;;;10.95;6.35;;;;;;;14.71;100.00;101453.19;4953410;28;20442;-80
2023/09/28 04:07:25;;;;;;;8.32;6.28;;;;;;;14.44;100.00;101427.31;4989202;22;20463;-77
2023/09/28 04:13:26;;;;;;;9.85;6.68;;;;;;;14.18;100.00;101391.94;4975061;28;20089;-80
2023/09/28 04:16:41;;;;;;;10.43;6.18;;;;;;;14.60;100.00;101479.09;4973465;28;20042;-81
2023/09/28 04:19:12;;;;;;;9.05;6.72;;;;;;;13.64;100.00;101332.44;4973509;28;20162;-75
2023/09/28 04:21:46;;;;;;;9.60;6.85;;;;;;;14.49;100.00;101481.63;4973334;28;20031;-76
2023/09/28 04:24:12;;;;;;;8.68;6.65;;;;;;;14.47;100.00;101478.31;4973418;28;20054;-77
2023/09/28 04:26:37;;;;;;;10.35;7.55;;;;;;;14.41;100.00;101476.91;4973091;28;20497;-75
2023/09/28 04:29:02;;;;;;;13.90;7.45;;;;;;;14.38;100.00;101476.28;4973213;28;20535;-74
2023/09/28 04:31:28;;;;;;;13.63;7.28;;;;;;;14.31;100.00;101466.31;4972974;28;20042;-77
2023/09/28 04:33:55;;;;;;;9.15;7.13;;;;;;;14.31;100.00;101475.88;4973252;28;20027;-79
2023/09/28 04:36:20;;;;;;;10.80;6.88;;;;;;;14.27;100.00;101477.03;4973020;28;20520;-78
2023/09/28 04:38:45;;;;;;;8.98;6.85;;;;;;;14.20;100.00;101486.16;4973092;28;20113;-77
2023/09/28 04:41:11;;;;;;;13.85;7.88;;;;;;;14.08;100.00;101474.84;4956673;28;20031;-79
2023/09/28 04:43:37;;;;;;;11.75;7.55;;;;;;;14.15;100.00;101502.03;4972970;28;20066;-77
2023/09/28 04:46:05;;;;;;;10.10;6.80;;;;;;;13.94;100.00;101472.31;4973063;28;20542;-76
2023/09/28 04:48:31;;;;;;;9.55;6.95;;;;;;;13.90;100.00;101471.72;4972422;28;20041;-76
2023/09/28 04:50:57;;;;;;;10.98;7.18;;;;;;;13.98;100.00;101495.41;4952067;28;20114;-76
2023/09/28 04:53:22;;;;;;;8.80;7.22;;;;;;;13.90;100.00;101502.88;4952770;29;20437;-77
2023/09/28 04:55:51;;;;;;;13.32;7.85;;;;;;;13.89;100.00;101495.19;4952737;29;20035;-79
2023/09/28 04:58:17;;;;;;;11.07;8.10;;;;;;;13.66;100.00;101462.94;4952840;29;20473;-77
2023/09/28 05:00:42;;;;;;;11.45;7.72;;;;;;;13.82;100.00;101502.53;4952623;29;20477;-78
2023/09/28 05:03:19;;;;;;;10.93;7.93;;;;;;;13.75;100.00;101511.66;4952545;29;20027;-78
2023/09/28 05:05:44;;;;;;;13.05;8.52;;;;;;;13.74;100.00;101526.41;4954135;29;20046;-77
2023/09/28 05:08:12;;;;;;;10.00;8.20;;;;;;;13.74;100.00;101526.41;4955272;29;20047;-76
2023/09/28 05:10:37;;;;;;;10.32;8.48;;;;;;;13.71;100.00;101524.00;4953103;29;20433;-77
2023/09/28 05:13:03;;;;;;;11.48;8.63;;;;;;;13.58;100.00;101522.31;4952506;29;20058;-75
2023/09/28 05:15:29;;;;;;;11.38;8.80;;;;;;;13.74;100.00;101546.31;4952650;29;20123;-76
2023/09/28 05:17:55;;;;;;;12.38;9.48;;;;;;;13.71;100.00;101549.97;4952552;28;20031;-76
2023/09/28 05:20:20;;;;;;;11.50;8.68;;;;;;;13.66;100.00;101545.97;4952291;29;20433;-75
2023/09/28 05:22:46;;;;;;;10.77;8.70;;;;;;;13.53;100.00;101529.56;4952518;29;20081;-77
2023/09/28 05:25:11;;;;;;;11.40;9.10;;;;;;;13.64;100.00;101548.69;4952310;29;20473;-76
2023/09/28 05:27:36;;;;;;;12.40;9.02;;;;;;;13.58;100.00;101549.09;4952361;29;20038;-76
2023/09/28 05:30:03;;;;;;;13.40;9.50;;;;;;;13.48;100.00;101545.44;4952408;29;20019;-76
2023/09/28 05:32:29;;;;;;;11.43;9.25;;;;;;;13.58;100.00;101569.03;4952148;28;20028;-77
2023/09/28 05:34:54;;;;;;;13.55;10.52;;;;;;;13.35;100.00;101534.97;4952242;29;20031;-75
2023/09/28 05:37:19;;;;;;;13.52;10.20;;;;;;;13.53;100.00;101560.69;4951946;29;20027;-76
2023/09/28 05:39:45;;;;;;;13.68;11.07;;;;;;;13.60;100.00;101567.16;4952435;28;20023;-76
2023/09/28 05:42:10;;;;;;;16.45;11.38;;;;;;;13.62;100.00;101565.28;4952124;29;20468;-80
2023/09/28 05:44:36;;;;;;;13.90;11.43;;;;;;;13.62;100.00;101573.06;4951996;29;20038;-79
2023/09/28 05:47:04;;;;;;;13.90;10.48;;;;;;;13.54;100.00;101575.31;4951970;29;20023;-77
2023/09/28 05:49:30;;;;;;;14.93;10.80;;;;;;;13.64;100.00;101584.19;4951838;28;20439;-78
2023/09/28 05:51:55;;;;;;;16.15;10.63;;;;;;;13.61;100.00;101587.00;4951890;29;20111;-76
2023/09/28 05:54:21;;;;;;;14.77;10.40;;;;;;;13.65;100.00;101589.28;4951990;28;20043;-76
2023/09/28 05:56:46;;;;;;;15.45;10.50;;;;;;;13.58;100.00;101577.66;4951998;29;20103;-77
2023/09/28 05:59:11;;;;;;;14.63;10.70;;;;;;;13.71;100.00;101596.69;4951838;29;20120;-76
2023/09/28 06:01:37;;;;;;;16.20;10.77;;;;;;;13.73;100.00;101612.16;4951906;28;20035;-76
2023/09/28 06:04:04;;;;;;;13.50;10.38;;;;;;;13.75;100.00;101618.06;4951398;29;20023;-77
2023/09/28 06:06:30;;;;;;;14.73;10.50;;;;;;;13.68;100.00;101596.06;4951636;28;20546;-75
2023/09/28 06:08:55;;;;;;;16.98;11.05;;;;;;;13.70;100.00;101599.38;4934539;29;20043;-77
2023/09/28 06:11:21;;;;;;;13.80;10.88;;;;;;;13.84;100.00;101609.69;4951936;29;20055;-76
2023/09/28 06:13:46;;;;;;;16.40;10.73;;;;;;;13.82;100.00;101588.22;4951735;29;20031;-76
2023/09/28 06:16:12;;;;;;;15.60;11.43;;;;;;;13.85;100.00;101582.81;4951590;29;20019;-75
2023/09/28 06:18:40;;;;;;;16.45;11.00;;;;;;;13.97;100.00;101605.41;4951452;28;20027;-77
2023/09/28 06:21:06;;;;;;;17.20;11.32;;;;;;;13.98;100.00;101604.47;4951523;29;20114;-76
2023/09/28 06:23:32;;;;;;;14.88;10.88;;;;;;;14.02;100.00;101608.53;4951524;29;20055;-76
2023/09/28 06:25:57;;;;;;;17.30;10.77;;;;;;;14.00;100.00;101594.81;4951582;29;20500;-75
2023/09/28 06:28:29;;;;;;;16.23;10.60;;;;;;;13.91;100.00;101587.63;4951511;29;20037;-76
2023/09/28 06:30:55;;;;;;;13.93;10.07;;;;;;;14.14;100.00;101627.66;4951618;29;20507;-77
2023/09/28 06:33:22;;;;;;;13.30;10.73;;;;;;;14.22;100.00;101629.75;4951305;28;20050;-75
2023/09/28 06:35:47;;;;;;;14.23;10.05;;;;;;;14.06;100.00;101601.38;4951270;29;20059;-76
2023/09/28 06:38:13;;;;;;;17.20;11.25;;;;;;;14.28;100.00;101613.78;4951345;29;20070;-75
2023/09/28 06:40:39;;;;;;;18.92;11.70;;;;;;;14.46;100.00;101646.38;4951507;29;20031;-75
2023/09/28 06:43:04;;;;;;;14.98;10.88;;;;;;;14.20;100.00;101592.69;4934331;29;20024;-76
2023/09/28 06:45:30;;;;;;;15.77;10.30;;;;;;;14.49;100.00;101620.19;4951104;29;20043;-76
2023/09/28 06:47:56;;;;;;;14.60;10.50;;;;;;;14.66;100.00;101641.63;4951264;29;20114;-75
2023/09/28 06:50:21;;;;;;;16.90;9.70;;;;;;;14.73;100.00;101641.09;4951357;29;20039;-76
2023/09/28 06:52:47;;;;;;;17.40;10.25;;;;;;;14.76;100.00;101635.72;4951558;29;20074;-76
2023/09/28 06:55:13;;;;;;;17.98;10.18;;;;;;;14.91;100.00;101646.81;4951389;29;20031;-77
2023/09/28 06:57:38;;;;;;;17.20;9.13;;;;;;;14.88;100.00;101641.84;4951167;29;20099;-77
2023/09/28 07:00:08;;;;;;;16.60;9.32;;;;;;;15.05;100.00;101667.53;4951169;29;20499;-76
2023/09/28 07:02:34;;;;;;;16.83;9.57;;;;;;;15.07;100.00;101651.81;4951120;28;20032;-76
2023/09/28 07:05:00;;;;;;;14.65;7.43;;;;;;;15.12;100.00;101653.16;4950872;29;20184;-75
2023/09/28 07:07:29;;;;;;;17.95;7.13;;;;;;;15.09;100.00;101661.16;4950889;29;20040;-75
2023/09/28 07:09:55;;;;;;;15.20;7.43;;;;;;;15.28;100.00;101694.56;4951288;29;20089;-77
2023/09/28 07:12:21;;;;;;;15.73;6.57;;;;;;;15.23;100.00;101662.81;4950954;29;20465;-76
2023/09/28 07:14:47;;;;;;;18.52;6.75;;;;;;;15.23;100.00;101642.00;4953126;28;20465;-76
2023/09/28 07:17:12;;;;;;;18.75;6.78;;;;;;;15.48;100.00;101664.53;4954203;29;20028;-75
2023/09/28 07:19:37;;;;;;;15.45;6.03;;;;;;;15.50;100.00;101637.47;4954040;28;20024;-75
2023/09/28 07:22:03;;;;;;;14.88;5.43;;;;;;;15.83;100.00;101676.84;4936964;29;20073;-75
2023/09/28 07:24:33;;;;;;;22.55;6.15;;;;;;;15.89;100.00;101671.22;4954100;29;20415;-75
2023/09/28 07:26:59;;;;;;;18.88;5.43;;;;;;;15.82;100.00;101656.97;4954300;29;20039;-76
2023/09/28 07:29:24;;;;;;;18.80;5.18;;;;;;;15.87;100.00;101653.09;4953966;29;20089;-75
2023/09/28 07:31:50;;;;;;;17.95;5.43;;;;;;;15.74;100.00;101650.56;4954026;29;20504;-76
2023/09/28 07:34:15;;;;;;;20.85;5.50;;;;;;;15.66;100.00;101652.88;4953822;28;20027;-75
2023/09/28 07:36:41;;;;;;;17.48;4.82;;;;;;;15.72;100.00;101691.47;4953853;29;20019;-77
2023/09/28 07:39:06;;;;;;;18.63;5.43;;;;;;;15.62;100.00;101674.00;4953771;29;20024;-78
2023/09/28 07:41:34;;;;;;;19.30;5.35;;;;;;;15.86;100.00;101703.53;4953702;29;20065;-76
2023/09/28 07:43:59;;;;;;;17.73;5.03;;;;;;;15.92;100.00;101697.03;4953748;29;20078;-78
2023/09/28 07:46:25;;;;;;;14.82;4.15;;;;;;;15.98;100.00;101705.25;4936773;29;20055;-76
2023/09/28 07:48:50;;;;;;;17.23;4.05;;;;;;;16.05;100.00;101716.91;4953620;29;20538;-77
2023/09/28 07:51:16;;;;;;;19.40;5.18;;;;;;;16.13;100.00;101703.34;4953559;29;20027;-76
2023/09/28 07:53:42;;;;;;;15.20;5.30;;;;;;;16.06;100.00;101692.50;4953610;29;20027;-77
2023/09/28 07:56:07;;;;;;;15.68;4.47;;;;;;;16.25;100.00;101707.66;4953550;29;20035;-77
2023/09/28 07:58:32;;;;;;;22.15;5.43;;;;;;;16.31;100.00;101708.97;4953690;29;20058;-76
2023/09/28 08:00:58;;;;;;;19.73;5.28;;;;;;;16.37;100.00;101728.53;4953560;29;20019;-77
2023/09/28 08:03:23;;;;;;;22.80;4.75;;;;;;;16.30;100.00;101713.34;4953575;29;20026;-76
2023/09/28 08:05:48;;;;;;;15.85;3.95;;;;;;;16.44;100.00;101738.41;4935838;29;20077;-76
2023/09/28 08:08:15;;;;;;;20.90;5.25;;;;;;;16.37;100.00;101712.91;4953422;29;20069;-76
2023/09/28 08:10:40;;;;;;;17.00;4.57;;;;;;;16.58;100.00;101733.00;4953135;29;20037;-76
2023/09/28 08:13:06;;;;;;;18.75;4.43;;;;;;;16.63;100.00;101733.53;4953569;29;20023;-74
2023/09/28 08:15:32;;;;;;;22.17;4.43;;;;;;;16.64;100.00;101731.75;4953367;29;20118;-75
2023/09/28 08:18:01;;;;;;;20.33;4.20;;;;;;;16.76;100.00;101736.06;4937659;28;20582;-75
2023/09/28 08:20:26;;;;;;;18.30;4.68;;;;;;;16.91;100.00;101745.38;4953796;28;20031;-75
2023/09/28 08:22:52;;;;;;;19.38;5.10;;;;;;;17.04;100.00;101740.06;4955064;29;20034;-75
2023/09/28 08:25:18;;;;;;;22.30;5.22;;;;;;;17.15;100.00;101742.66;4954207;28;20469;-77
2023/09/28 08:27:43;;;;;;;19.45;4.15;;;;;;;17.17;100.00;101732.09;4953370;29;20030;-75
2023/09/28 08:30:10;;;;;;;22.63;5.53;;;;;;;17.06;100.00;101721.66;4953084;29;20019;-75
2023/09/28 08:32:35;;;;;;;18.52;4.05;;;;;;;17.10;100.00;101734.34;4935924;28;20027;-79
2023/09/28 08:35:00;;;;;;;17.33;4.43;;;;;;;17.01;100.00;101702.91;4953009;28;20346;-77
2023/09/28 08:37:26;;;;;;;19.23;4.82;;;;;;;17.37;100.00;101739.25;4953182;28;20046;-75
2023/09/28 08:39:51;;;;;;;23.50;4.53;;;;;;;17.40;100.00;101731.19;4951894;28;20448;-75
2023/09/28 08:42:24;;;;;;;22.40;5.13;;;;;;;17.57;100.00;101742.09;4936273;29;20035;-79
2023/09/28 08:44:59;;;;;;;17.83;5.07;;;;;;;17.57;100.00;101729.03;4952877;29;20137;-79
2023/09/28 08:47:26;;;;;;;18.10;4.65;;;;;;;17.90;100.00;101760.41;4953023;29;20496;-81
2023/09/28 08:49:52;;;;;;;18.20;5.10;;;;;;;17.99;97.19;101770.13;4952805;29;20062;-78
2023/09/28 08:52:18;;;;;;;17.85;5.10;;;;;;;18.00;94.88;101769.16;4952478;29;20024;-79
2023/09/28 08:54:43;;;;;;;17.08;4.50;;;;;;;17.93;96.44;101760.13;4952745;29;20032;-81
2023/09/28 08:57:10;;;;;;;18.27;4.82;;;;;;;18.12;95.90;101769.97;4952854;29;20034;-78
2023/09/28 08:59:37;;;;;;;23.33;5.18;;;;;;;18.36;94.80;101775.00;4952809;29;20102;-75
2023/09/28 09:02:11;;;;;;;17.88;5.20;;;;;;;18.50;93.46;101756.41;4952757;29;20027;-74
2023/09/28 09:04:42;;;;;;;16.80;5.22;;;;;;;18.55;91.29;101772.53;4967979;23;20482;-75
2023/09/28 09:07:08;;;;;;;16.37;5.37;;;;;;;18.41;91.11;101761.56;4971747;28;20026;-76
2023/09/28 09:09:40;;;;;;;18.58;4.90;;;;;;;17.98;89.93;101697.03;4954629;28;20383;-75
2023/09/28 09:12:10;;;;;;;22.27;5.93;;;;;;;18.62;90.63;101771.09;4972088;28;20392;-79
2023/09/28 09:14:36;;;;;;;21.25;5.57;;;;;;;18.74;90.45;101774.53;4954725;28;20518;-77
2023/09/28 09:17:02;;;;;;;19.85;6.03;;;;;;;18.79;89.33;101769.75;4972039;28;20027;-77
2023/09/28 09:19:31;;;;;;;15.13;4.90;;;;;;;18.96;88.71;101770.94;4971797;28;20019;-80
2023/09/28 09:21:57;;;;;;;20.02;5.25;;;;;;;19.19;87.24;101772.47;4971643;28;20023;-78
2023/09/28 09:24:23;;;;;;;17.90;4.88;;;;;;;19.36;86.14;101773.66;4971546;28;20468;-79
2023/09/28 09:26:52;;;;;;;14.93;4.63;;;;;;;19.46;85.81;101760.59;4971442;28;20038;-80
2023/09/28 09:29:18;;;;;;;14.48;4.57;;;;;;;19.35;85.33;101734.50;4971771;28;20097;-82
2023/09/28 09:31:47;;;;;;;15.93;4.47;;;;;;;19.33;84.62;101739.03;4971653;28;20038;-78
2023/09/28 09:34:17;;;;;;;15.90;4.60;;;;;;;19.48;81.98;101783.09;4971365;28;20125;-81
2023/09/28 09:36:42;;;;;;;19.05;5.60;;;;;;;19.27;81.54;101763.13;4970847;28;20035;-78
2023/09/28 09:39:21;;;;;;;20.80;5.20;;;;;;;19.23;83.16;101759.13;4971482;28;20031;-77
2023/09/28 09:41:47;;;;;;;19.02;5.38;;;;;;;19.38;85.80;101786.66;4971564;28;20026;-81
2023/09/28 09:53:02;;;;;;;15.90;4.72;;;;;;;18.19;84.83;101665.72;4958082;28;20058;-77
2023/09/28 09:56:16;;;;;;;13.50;4.40;;;;;;;18.88;86.21;101778.63;4951744;29;20479;-79
2023/09/28 09:59:10;;;;;;;15.52;4.40;;;;;;;18.14;88.09;101673.94;4951783;28;20484;-77
2023/09/28 10:01:40;;;;;;;17.13;4.78;;;;;;;18.39;87.06;101732.94;4951800;29;20035;-75
2023/09/28 10:04:16;;;;;;;23.83;4.45;;;;;;;18.87;88.33;101792.66;4951976;29;20078;-76
2023/09/28 10:07:06;;;;;;;18.02;4.38;;;;;;;18.90;85.61;101784.56;4951557;28;20494;-73
2023/09/28 10:09:35;;;;;;;17.98;4.63;;;;;;;18.47;85.42;101738.34;4934528;29;20473;-75
2023/09/28 10:12:01;;;;;;;18.25;4.18;;;;;;;18.46;87.00;101726.22;4951777;29;20168;-74
2023/09/28 10:14:26;;;;;;;19.35;4.40;;;;;;;18.86;85.41;101780.53;4951379;29;20490;-76
2023/09/28 10:16:53;;;;;;;18.95;4.88;;;;;;;18.82;83.70;101772.09;4951580;29;20036;-75
2023/09/28 10:19:23;;;;;;;17.00;4.13;;;;;;;18.69;84.69;101765.41;4951771;29;20023;-76
2023/09/28 10:21:51;;;;;;;16.40;4.50;;;;;;;18.62;86.16;101750.16;4981514;23;20138;-75
2023/09/28 10:24:17;;;;;;;19.20;4.15;;;;;;;18.50;86.22;101709.34;4970788;28;20069;-78
2023/09/28 10:26:50;;;;;;;17.02;4.03;;;;;;;18.81;87.63;101743.44;4970658;28;20031;-76
2023/09/28 10:29:30;;;;;;;17.77;4.20;;;;;;;18.96;86.90;101730.84;4970743;28;20114;-78
2023/09/28 10:31:57;;;;;;;21.13;4.50;;;;;;;19.24;84.02;101755.53;4970708;28;20050;-74
2023/09/28 10:34:27;;;;;;;19.10;4.15;;;;;;;19.53;82.34;101761.75;4970688;28;20274;-75
2023/09/28 10:37:08;;;;;;;17.88;4.38;;;;;;;19.78;85.06;101757.88;4970662;28;20089;-80
2023/09/28 10:39:33;;;;;;;17.88;3.90;;;;;;;19.90;82.36;101751.53;4970699;28;20035;-77
2023/09/28 10:42:12;;;;;;;13.93;3.83;;;;;;;20.14;82.45;101763.44;4971003;28;20122;-75
2023/09/28 10:44:46;;;;;;;15.48;3.95;;;;;;;20.31;81.75;101760.16;4970620;28;20096;-77
2023/09/28 10:47:11;;;;;;;17.42;4.13;;;;;;;20.53;78.96;101757.28;4969513;28;20027;-74
2023/09/28 10:49:36;;;;;;;16.65;3.83;;;;;;;20.56;75.54;101746.53;4972649;28;20490;-73
2023/09/28 10:52:02;;;;;;;17.85;3.88;;;;;;;20.46;75.00;101748.34;4974159;28;20031;-77
2023/09/28 10:54:30;;;;;;;17.33;3.95;;;;;;;20.24;74.20;101741.50;4973727;28;20069;-75
2023/09/28 10:56:55;;;;;;;17.45;4.07;;;;;;;20.28;76.23;101774.38;4973736;28;20034;-78
2023/09/28 10:59:21;;;;;;;17.98;3.88;;;;;;;20.21;76.09;101764.56;4955078;28;20031;-74
2023/09/28 11:01:48;;;;;;;18.38;4.07;;;;;;;20.36;75.90;101772.88;4973468;28;20110;-72
2023/09/28 11:04:15;;;;;;;14.45;3.90;;;;;;;20.13;73.99;101746.88;4973560;28;20031;-75
2023/09/28 11:06:42;;;;;;;17.10;4.45;;;;;;;20.26;75.56;101765.84;4973468;28;20149;-75
2023/09/28 11:09:09;;;;;;;14.30;3.67;;;;;;;20.31;74.55;101768.84;4973490;28;20486;-75
2023/09/28 11:11:35;;;;;;;16.40;4.10;;;;;;;20.27;75.50;101785.84;4973357;28;20068;-76
2023/09/28 11:14:00;;;;;;;13.07;4.00;;;;;;;20.31;74.17;101787.22;4956341;28;20102;-74
2023/09/28 11:16:26;;;;;;;13.80;3.88;;;;;;;20.47;75.10;101802.47;4973474;28;20077;-77
2023/09/28 11:18:54;;;;;;;15.35;3.78;;;;;;;20.54;73.64;101789.59;4973528;28;20027;-76
2023/09/28 11:21:20;;;;;;;15.02;3.70;;;;;;;20.60;76.21;101779.41;4973456;28;20488;-75
2023/09/28 11:23:45;;;;;;;15.57;4.50;;;;;;;20.65;74.52;101778.13;4973221;28;20027;-76
2023/09/28 11:26:11;;;;;;;17.10;3.92;;;;;;;20.60;74.08;101775.94;4955308;28;20039;-75
2023/09/28 11:28:38;;;;;;;16.55;3.90;;;;;;;20.43;72.97;101760.88;4973346;28;20089;-76
2023/09/28 11:31:10;;;;;;;14.20;4.40;;;;;;;20.58;74.74;101777.88;4973532;28;20105;-76
2023/09/28 11:33:36;;;;;;;16.15;3.58;;;;;;;20.68;73.93;101785.75;4973274;28;20023;-77